KMTC/MTC METAR and TAF weather

Enter ICAO airport designator
Station Type Date Time Source
KMTC METAR 2022/09/26 08:55 UTC NOAA

KMTC 260855Z AUTO 26009KT 10SM CLR 11/11 A2957 RMK AO2 SLP018 60000 T01130111 57012


Station Type Date Time Source
KMTC Decoded METAR 2022/09/26 08:55 UTC NOAA

Selfridge Air National Guard Base, MI, United States (KMTC) 42-37N 082-50W
Sep 26, 2022 - 04:55 AM EDT / 2022.09.26 0855 UTC
Wind: from the W (260 degrees) at 10 MPH (9 KT):0
Visibility: 10 mile(s):0
Sky conditions: clear
Temperature: 52.3 F (11.3 C)
Dew Point: 52.0 F (11.1 C)
Relative Humidity: 98%
Pressure (altimeter): 29.57 in. Hg (1001 hPa)
Pressure tendency: 0.04 inches (1.2 hPa) lower than three hours ago
ob: KMTC 260855Z AUTO 26009KT 10SM CLR 11/11 A2957 RMK AO2 SLP018 60000 T01130111 57012
cycle: 9

Station Type Date Time Source
KMTC TAF 2022/09/26 07:58 UTC NOAA

TAF COR KMTC 260743Z 2607/2707 28009KT 9999 BKN020 QNH2958INS
BECMG 2612/2613 28015G30KT 9999 BKN025 OVC035 520003 QNH2959INS
BECMG 2615/2616 28015G25KT 9000 -SHRA BKN035 520003 QNH2959INS
BECMG 2620/2621 28009KT 9999 NSW BKN035 QNH2966INS TX15/2620Z TN11/2612Z LAST NO
AMDS AFT 2607 NEXT 2611

Example: see airport list